Fascination — C6FM9 — position and weather

sailwx.info

Track history (hours):
 
Tides and Currents Weather Stations Pressure Air Temp Water Temp Dewpoint Dewpoint Depression Visibility Wind Speed Wind Dir Waves Ship Positions

Fascination

Operator: Carnival Cruise Lines

Last reported at 2016-May-03 03:00 UTC. Time now 2016-May-06 01:45 UTC.
Position N 17°36' W 064°06'.

Type: Ship. MMSI: 309682000.

Wind from 250 at 23 knots

Waves 1.0 meters (3 feet), 6 second period

Barometer 1022.3 mb
Air temperature 25.0 ° C
Visibility: greater than 5.4 NM
Dewpoint 23.5 ° C
Water temperature 26.8 ° C

Date/timePositionNaut miles runAvg speedWind from/ knotsBaromVisibWave heightAir tempDewpointWater temp
2016-May-03 03:00N 17°36' W 064°06'4712.6 250 / 231022.3 5.4 1.025.023.526.8
2016-May-02 23:14N 18°05' W 064°45'624.8
2016-May-02 23:00N 18°00' W 064°42'1330.2 230 / 151020.3 5.4 1.524.021.026.0
2016-May-02 22:33N 18°09' W 064°52'10 0.8
2016-May-02 10:17N 18°18' W 064°55'66 9.6
2016-May-02 03:27N 18°35' W 066°03'9 9.7
2016-May-02 02:33N 18°27' W 066°07'1 0.6
2016-May-02 01:33N 18°28' W 066°07'0 0.0
2016-May-02 00:33N 18°28' W 066°07'0 0.0
2016-May-01 19:25N 18°28' W 066°07'0 0.0
2016-May-01 18:33N 18°28' W 066°07'0 0.0
2016-May-01 17:30N 18°28' W 066°07'0 0.0
2016-May-01 16:32N 18°28' W 066°07'0 0.0
2016-May-01 15:14N 18°28' W 066°07'0 0.0
2016-May-01 14:28N 18°28' W 066°07'0 0.0
2016-May-01 13:31N 18°28' W 066°07'0 0.0
2016-May-01 12:31N 18°28' W 066°07'0 0.0
2016-May-01 11:33N 18°28' W 066°07'0 0.0
2016-May-01 10:30N 18°28' W 066°07'0 0.1
2016-May-01 09:33N 18°28' W 066°07'10 8.9
2016-May-01 08:23N 18°38' W 066°06'7014.6
2016-May-01 03:34N 18°11' W 064°58'7017.2
2016-Apr-30 23:30N 18°03' W 063°44'1617.4
2016-Apr-30 22:33N 18°02' W 063°27'1716.6
2016-Apr-30 21:33N 18°01' W 063°10'25 1.2
2016-Apr-30 01:00N 17°36' W 063°06'66 4.0 140 / 241014.910.8 1.027.024.127.0
2016-Apr-29 08:33N 16°40' W 062°30'247 7.8
2016-Apr-28 01:00N 13°12' W 060°12'360 7.7 040 / 171013.310.8 1.027.024.127.5
2016-Apr-26 02:12N 17°46' W 064°15'416.3
2016-Apr-26 02:00N 17°48' W 064°12'1019.5 320 / 141013.010.8 0.527.024.126.9
2016-Apr-26 01:29N 17°53' W 064°21'2711.9
2016-Apr-25 23:13N 18°06' W 064°46'811.1
2016-Apr-25 22:29N 18°09' W 064°54'10 0.8
2016-Apr-25 10:20N 18°19' W 064°55'68 5.7
2016-Apr-24 22:29N 18°28' W 066°07'0 0.0
2016-Apr-24 21:22N 18°28' W 066°07'0 0.0
2016-Apr-24 20:31N 18°28' W 066°07'0 0.0
2016-Apr-24 19:34N 18°28' W 066°07'0 0.0
2016-Apr-24 18:33N 18°28' W 066°07'0 0.0
2016-Apr-24 17:30N 18°28' W 066°07'0 0.0
2016-Apr-24 16:14N 18°28' W 066°07'0 0.0
2016-Apr-24 15:32N 18°28' W 066°07'0 0.0
2016-Apr-24 14:31N 18°28' W 066°07'0 0.0
2016-Apr-24 13:28N 18°28' W 066°07'0 0.0
2016-Apr-24 12:28N 18°28' W 066°07'0 0.0
2016-Apr-24 11:30N 18°28' W 066°07'0 0.0
2016-Apr-24 10:30N 18°28' W 066°07'0 0.1
2016-Apr-24 09:32N 18°28' W 066°06'6910.9
2016-Apr-24 03:14N 18°10' W 064°56'6417.0
2016-Apr-23 23:29N 18°03' W 063°50'1717.2
2016-Apr-23 22:31N 18°02' W 063°32'1717.3
2016-Apr-23 21:33N 18°01' W 063°15'11 1.2
2016-Apr-23 12:22N 18°01' W 063°03'0 0.4
2016-Apr-23 11:16N 18°00' W 063°03'5 7.1
2016-Apr-23 10:33N 18°01' W 063°08'10 9.1
2016-Apr-23 09:28N 18°03' W 063°18'9 9.4
2016-Apr-23 08:31N 18°06' W 063°27'11 9.3
2016-Apr-23 07:23N 18°11' W 063°37'4 4.6
2016-Apr-23 06:33N 18°08' W 063°40'815.3
2016-Apr-23 06:00N 18°00' W 063°36'4 6.8 090 / 181021.310.8 1.026.023.127.0
2016-Apr-23 05:28N 18°01' W 063°32'1010.0
2016-Apr-23 04:28N 17°57' W 063°23'9 9.8
2016-Apr-23 03:30N 17°50' W 063°15'  
Track history (hours):
 
Tides and Currents Weather Stations Pressure Air Temp Water Temp Dewpoint Dewpoint Depression Visibility Wind Speed Wind Dir Waves Ship Positions

Fascination

Operator: Carnival Cruise Lines

Last reported at 2016-May-03 03:00 UTC. Time now 2016-May-06 01:45 UTC.
Position N 17°36' W 064°06'.

Type: Ship. MMSI: 309682000.

Wind from 250 at 23 knots

Waves 1.0 meters (3 feet), 6 second period

Barometer 1022.3 mb
Air temperature 25.0 ° C
Visibility: greater than 5.4 NM
Dewpoint 23.5 ° C
Water temperature 26.8 ° C

Date/timePositionNaut miles runAvg speedWind from/ knotsBaromVisibWave heightAir tempDewpointWater temp
2016-May-03 03:00N 17°36' W 064°06'4712.6 250 / 231022.3 5.4 1.025.023.526.8
2016-May-02 23:14N 18°05' W 064°45'624.8
2016-May-02 23:00N 18°00' W 064°42'1330.2 230 / 151020.3 5.4 1.524.021.026.0
2016-May-02 22:33N 18°09' W 064°52'10 0.8
2016-May-02 10:17N 18°18' W 064°55'66 9.6
2016-May-02 03:27N 18°35' W 066°03'9 9.7
2016-May-02 02:33N 18°27' W 066°07'1 0.6
2016-May-02 01:33N 18°28' W 066°07'0 0.0
2016-May-02 00:33N 18°28' W 066°07'0 0.0
2016-May-01 19:25N 18°28' W 066°07'0 0.0
2016-May-01 18:33N 18°28' W 066°07'0 0.0
2016-May-01 17:30N 18°28' W 066°07'0 0.0
2016-May-01 16:32N 18°28' W 066°07'0 0.0
2016-May-01 15:14N 18°28' W 066°07'0 0.0
2016-May-01 14:28N 18°28' W 066°07'0 0.0
2016-May-01 13:31N 18°28' W 066°07'0 0.0
2016-May-01 12:31N 18°28' W 066°07'0 0.0
2016-May-01 11:33N 18°28' W 066°07'0 0.0
2016-May-01 10:30N 18°28' W 066°07'0 0.1
2016-May-01 09:33N 18°28' W 066°07'10 8.9
2016-May-01 08:23N 18°38' W 066°06'7014.6
2016-May-01 03:34N 18°11' W 064°58'7017.2
2016-Apr-30 23:30N 18°03' W 063°44'1617.4
2016-Apr-30 22:33N 18°02' W 063°27'1716.6
2016-Apr-30 21:33N 18°01' W 063°10'25 1.2
2016-Apr-30 01:00N 17°36' W 063°06'66 4.0 140 / 241014.910.8 1.027.024.127.0
2016-Apr-29 08:33N 16°40' W 062°30'247 7.8
2016-Apr-28 01:00N 13°12' W 060°12'360 7.7 040 / 171013.310.8 1.027.024.127.5
2016-Apr-26 02:12N 17°46' W 064°15'416.3
2016-Apr-26 02:00N 17°48' W 064°12'1019.5 320 / 141013.010.8 0.527.024.126.9
2016-Apr-26 01:29N 17°53' W 064°21'2711.9
2016-Apr-25 23:13N 18°06' W 064°46'811.1
2016-Apr-25 22:29N 18°09' W 064°54'10 0.8
2016-Apr-25 10:20N 18°19' W 064°55'68 5.7
2016-Apr-24 22:29N 18°28' W 066°07'0 0.0
2016-Apr-24 21:22N 18°28' W 066°07'0 0.0
2016-Apr-24 20:31N 18°28' W 066°07'0 0.0
2016-Apr-24 19:34N 18°28' W 066°07'0 0.0
2016-Apr-24 18:33N 18°28' W 066°07'0 0.0
2016-Apr-24 17:30N 18°28' W 066°07'0 0.0
2016-Apr-24 16:14N 18°28' W 066°07'0 0.0
2016-Apr-24 15:32N 18°28' W 066°07'0 0.0
2016-Apr-24 14:31N 18°28' W 066°07'0 0.0
2016-Apr-24 13:28N 18°28' W 066°07'0 0.0
2016-Apr-24 12:28N 18°28' W 066°07'0 0.0
2016-Apr-24 11:30N 18°28' W 066°07'0 0.0
2016-Apr-24 10:30N 18°28' W 066°07'0 0.1
2016-Apr-24 09:32N 18°28' W 066°06'6910.9
2016-Apr-24 03:14N 18°10' W 064°56'6417.0
2016-Apr-23 23:29N 18°03' W 063°50'1717.2
2016-Apr-23 22:31N 18°02' W 063°32'1717.3
2016-Apr-23 21:33N 18°01' W 063°15'11 1.2
2016-Apr-23 12:22N 18°01' W 063°03'0 0.4
2016-Apr-23 11:16N 18°00' W 063°03'5 7.1
2016-Apr-23 10:33N 18°01' W 063°08'10 9.1
2016-Apr-23 09:28N 18°03' W 063°18'9 9.4
2016-Apr-23 08:31N 18°06' W 063°27'11 9.3
2016-Apr-23 07:23N 18°11' W 063°37'4 4.6
2016-Apr-23 06:33N 18°08' W 063°40'815.3
2016-Apr-23 06:00N 18°00' W 063°36'4 6.8 090 / 181021.310.8 1.026.023.127.0
2016-Apr-23 05:28N 18°01' W 063°32'1010.0
2016-Apr-23 04:28N 17°57' W 063°23'9 9.8
2016-Apr-23 03:30N 17°50' W 063°15'  

Dump ship's entire track history